createdAt,value
2022-12-29T00:02:27.030Z,3.34
2022-12-29T00:04:54.747Z,4.79
2022-12-29T00:07:22.382Z,4.80
2022-12-29T00:09:50.032Z,4.71
2022-12-29T00:12:17.690Z,4.71
2022-12-29T00:15:03.041Z,4.65
2022-12-29T00:17:30.723Z,4.75
2022-12-29T00:20:16.055Z,4.58
2022-12-29T00:23:03.415Z,4.33
2022-12-29T00:25:48.698Z,4.80
2022-12-29T00:28:34.013Z,4.70
2022-12-29T00:31:20.928Z,4.66
2022-12-29T00:34:06.305Z,4.49
2022-12-29T00:36:43.402Z,4.39
2022-12-29T00:39:33.968Z,4.38
2022-12-29T00:42:29.175Z,4.05
2022-12-29T00:44:56.864Z,3.73
2022-12-29T00:47:24.554Z,3.93
2022-12-29T00:49:51.351Z,3.83
2022-12-29T00:52:19.021Z,3.56
2022-12-29T00:54:46.829Z,3.55
2022-12-29T00:57:14.554Z,3.62
2022-12-29T00:59:43.502Z,3.63
2022-12-29T01:02:12.256Z,3.63
2022-12-29T01:04:40.094Z,3.75
2022-12-29T01:07:07.935Z,3.75
2022-12-29T01:09:53.297Z,3.67
2022-12-29T01:12:41.518Z,3.50
2022-12-29T01:15:14.233Z,3.44
2022-12-29T01:17:42.933Z,3.17
2022-12-29T01:20:11.675Z,2.84
2022-12-29T01:22:39.854Z,3.00
2022-12-29T01:25:08.108Z,3.17
2022-12-29T01:27:36.193Z,3.21
2022-12-29T01:30:03.918Z,2.77
2022-12-29T01:32:33.185Z,2.74
2022-12-29T01:35:00.850Z,2.90
2022-12-29T01:37:28.614Z,3.07
2022-12-29T01:39:56.631Z,3.09
2022-12-29T01:42:27.337Z,3.18
2022-12-29T01:45:04.652Z,3.15
2022-12-29T01:47:35.864Z,3.20
2022-12-29T01:50:10.951Z,3.14
2022-12-29T01:52:43.248Z,3.29
2022-12-29T01:55:13.117Z,2.84
2022-12-29T01:57:46.105Z,2.69
2022-12-29T02:00:16.214Z,2.58
2022-12-29T02:02:52.953Z,2.84
2022-12-29T02:05:52.012Z,2.92
2022-12-29T02:08:20.497Z,2.54
2022-12-29T02:10:49.435Z,2.60
2022-12-29T02:13:19.117Z,2.23
2022-12-29T02:15:56.731Z,2.43
2022-12-29T02:18:31.307Z,2.39
2022-12-29T02:21:04.983Z,2.49
2022-12-29T02:24:06.548Z,2.40
2022-12-29T02:26:55.764Z,2.49
2022-12-29T02:29:44.820Z,2.46
2022-12-29T02:32:33.128Z,2.43
2022-12-29T02:35:04.079Z,2.38
2022-12-29T02:37:47.491Z,2.18
2022-12-29T02:40:30.297Z,2.22
2022-12-29T02:43:04.646Z,2.70
2022-12-29T02:45:44.014Z,2.71
2022-12-29T02:48:18.341Z,2.56
2022-12-29T02:50:55.113Z,2.64
2022-12-29T02:53:40.005Z,2.47
2022-12-29T02:56:07.879Z,2.50
2022-12-29T02:58:35.541Z,2.40
2022-12-29T03:01:29.421Z,2.28
2022-12-29T03:04:05.895Z,2.17
2022-12-29T03:06:53.341Z,2.45
2022-12-29T03:09:45.540Z,2.28
2022-12-29T03:12:47.379Z,2.24
2022-12-29T03:15:40.891Z,2.48
2022-12-29T03:18:47.433Z,2.62
2022-12-29T03:21:46.495Z,2.25
2022-12-29T03:24:18.003Z,1.91
2022-12-29T03:26:51.008Z,1.96
2022-12-29T03:29:22.672Z,1.95
2022-12-29T03:31:53.744Z,1.87
2022-12-29T03:34:23.940Z,1.95
2022-12-29T03:36:59.710Z,1.82
2022-12-29T03:39:28.529Z,1.89
2022-12-29T03:42:08.552Z,1.96
2022-12-29T03:44:41.951Z,2.17
2022-12-29T03:47:13.320Z,2.14
2022-12-29T03:49:41.582Z,2.35
2022-12-29T03:52:09.780Z,2.39
2022-12-29T03:54:43.501Z,2.27
2022-12-29T03:57:13.027Z,2.28
2022-12-29T03:59:51.892Z,2.20
2022-12-29T04:02:19.702Z,2.15
2022-12-29T04:04:48.285Z,2.01
2022-12-29T04:07:16.270Z,2.13
2022-12-29T04:09:44.256Z,2.18
2022-12-29T04:12:17.379Z,2.27
2022-12-29T04:14:46.012Z,2.25
2022-12-29T04:17:13.728Z,2.51
2022-12-29T04:19:43.417Z,2.48
2022-12-29T04:22:12.645Z,2.65
2022-12-29T04:24:41.272Z,2.40
2022-12-29T04:27:11.282Z,2.27
2022-12-29T04:30:14.008Z,2.43
2022-12-29T04:33:01.631Z,2.39
2022-12-29T04:35:30.368Z,2.61
2022-12-29T04:37:58.726Z,2.65
2022-12-29T04:40:27.054Z,2.66
2022-12-29T04:42:55.363Z,2.91
2022-12-29T04:45:24.409Z,2.77
2022-12-29T04:47:57.375Z,3.09
2022-12-29T04:50:43.895Z,3.09
2022-12-29T04:53:24.529Z,3.02
2022-12-29T04:55:54.701Z,2.89
2022-12-29T04:58:23.669Z,2.96
2022-12-29T05:00:53.810Z,2.97
2022-12-29T05:03:24.688Z,3.05
2022-12-29T05:05:56.189Z,3.06
2022-12-29T05:08:27.961Z,2.88
2022-12-29T05:10:58.426Z,3.22
2022-12-29T05:13:26.190Z,3.20
2022-12-29T05:15:55.490Z,3.21
2022-12-29T05:18:24.946Z,3.16
2022-12-29T05:20:52.719Z,3.10
2022-12-29T05:23:22.163Z,2.86
2022-12-29T05:26:00.332Z,2.94
2022-12-29T05:28:32.850Z,3.12
2022-12-29T05:31:14.367Z,3.00
2022-12-29T05:33:42.168Z,3.11
2022-12-29T05:36:10.910Z,3.02
2022-12-29T05:38:43.233Z,3.07
2022-12-29T05:41:12.143Z,3.15
2022-12-29T05:43:58.148Z,3.10
2022-12-29T05:46:44.173Z,3.19
2022-12-29T05:49:18.070Z,3.12
2022-12-29T05:52:09.146Z,3.29
2022-12-29T05:54:37.051Z,3.34
2022-12-29T05:57:10.942Z,3.40
2022-12-29T05:59:40.280Z,3.38
2022-12-29T06:02:08.147Z,3.29
2022-12-29T06:04:36.227Z,3.40
2022-12-29T06:07:04.268Z,3.43
2022-12-29T06:09:52.146Z,3.35
2022-12-29T06:12:20.485Z,3.42
2022-12-29T06:14:51.209Z,3.32
2022-12-29T06:17:18.908Z,3.30
2022-12-29T06:19:46.830Z,3.44
2022-12-29T06:22:14.755Z,3.35
2022-12-29T06:24:44.001Z,3.40
2022-12-29T06:27:12.271Z,3.31
2022-12-29T06:29:41.663Z,3.45
2022-12-29T06:32:09.822Z,3.34
2022-12-29T06:34:41.000Z,3.53
2022-12-29T06:37:08.799Z,3.56
2022-12-29T06:39:36.510Z,3.50
2022-12-29T06:42:11.716Z,3.60
2022-12-29T06:45:14.561Z,3.65
2022-12-29T06:47:42.220Z,3.70
2022-12-29T06:50:10.402Z,3.67
2022-12-29T06:52:38.163Z,3.73
2022-12-29T06:55:06.350Z,3.77
2022-12-29T06:57:34.102Z,3.75
2022-12-29T07:00:01.755Z,3.80
2022-12-29T07:02:29.525Z,3.81
2022-12-29T07:04:57.314Z,3.77
2022-12-29T07:07:24.989Z,3.75
2022-12-29T07:09:52.670Z,3.93
2022-12-29T07:12:20.286Z,4.04
2022-12-29T07:14:48.571Z,4.00
2022-12-29T07:17:16.209Z,3.95
2022-12-29T07:19:45.292Z,4.16
2022-12-29T07:22:12.982Z,4.19
2022-12-29T07:24:41.084Z,4.04
2022-12-29T07:27:08.854Z,4.41
2022-12-29T07:29:39.247Z,4.43
2022-12-29T07:32:07.168Z,4.11
2022-12-29T07:34:34.933Z,4.39
2022-12-29T07:37:02.597Z,4.42
2022-12-29T07:39:30.209Z,4.46
2022-12-29T07:42:02.815Z,4.40
2022-12-29T07:44:39.265Z,4.51
2022-12-29T07:47:25.527Z,4.49
2022-12-29T07:49:53.158Z,4.45
2022-12-29T07:52:20.947Z,4.46
2022-12-29T07:54:48.617Z,4.42
2022-12-29T07:57:16.299Z,4.54
2022-12-29T07:59:44.362Z,4.47
2022-12-29T08:02:13.450Z,4.47
2022-12-29T08:04:41.236Z,4.57
2022-12-29T08:07:08.951Z,4.54
2022-12-29T08:09:36.555Z,4.68
2022-12-29T08:12:04.324Z,4.55
2022-12-29T08:14:31.965Z,4.90
2022-12-29T08:16:59.657Z,4.91
2022-12-29T08:19:27.306Z,4.70
2022-12-29T08:21:55.527Z,4.98
2022-12-29T08:24:23.467Z,5.21
2022-12-29T08:26:51.819Z,5.26
2022-12-29T08:29:19.483Z,5.25
2022-12-29T08:31:47.261Z,5.13
2022-12-29T08:34:15.302Z,5.26
2022-12-29T08:36:43.013Z,5.23
2022-12-29T08:39:11.256Z,5.37
2022-12-29T08:41:38.986Z,5.36
2022-12-29T08:44:07.248Z,5.51
2022-12-29T08:46:34.924Z,5.65
2022-12-29T08:49:02.561Z,5.76
2022-12-29T08:51:30.189Z,5.88
2022-12-29T08:53:57.879Z,6.09
2022-12-29T08:56:25.892Z,6.12
2022-12-29T08:58:57.152Z,5.83
2022-12-29T09:01:25.955Z,5.93
2022-12-29T09:04:14.386Z,6.19
2022-12-29T09:06:42.640Z,6.37
2022-12-29T09:09:10.428Z,6.39
2022-12-29T09:11:38.256Z,6.51
2022-12-29T09:14:06.123Z,6.49
2022-12-29T09:16:34.806Z,6.49
2022-12-29T09:19:03.365Z,6.47
2022-12-29T09:21:31.333Z,6.37
2022-12-29T09:23:59.015Z,6.36
2022-12-29T09:26:26.882Z,6.49
2022-12-29T09:28:54.501Z,6.57
2022-12-29T09:31:23.223Z,6.34
2022-12-29T09:33:51.016Z,6.35
2022-12-29T09:36:18.684Z,6.34
2022-12-29T09:38:46.347Z,6.21
2022-12-29T09:41:27.285Z,6.40
2022-12-29T09:44:09.046Z,6.38
2022-12-29T09:46:42.098Z,6.36
2022-12-29T09:49:22.026Z,6.16
2022-12-29T09:51:55.038Z,6.18
2022-12-29T09:54:48.232Z,6.35
2022-12-29T09:57:26.340Z,6.45
2022-12-29T10:00:01.174Z,6.28
2022-12-29T10:02:45.749Z,6.45
2022-12-29T10:05:37.388Z,6.55
2022-12-29T10:08:18.418Z,6.40
2022-12-29T10:10:58.518Z,6.54
2022-12-29T10:14:03.386Z,6.37
2022-12-29T10:16:48.734Z,6.38
2022-12-29T10:19:35.286Z,6.46
2022-12-29T10:22:19.128Z,6.52
2022-12-29T10:24:49.423Z,6.44
2022-12-29T10:27:18.368Z,6.48
2022-12-29T10:29:52.828Z,6.38
2022-12-29T10:32:31.487Z,6.41
2022-12-29T10:35:20.930Z,6.39
2022-12-29T10:38:05.923Z,6.25
2022-12-29T10:40:51.898Z,6.26
2022-12-29T10:43:22.316Z,6.21
2022-12-29T10:45:50.320Z,6.23
2022-12-29T10:48:31.990Z,6.19
2022-12-29T10:51:02.783Z,6.29
2022-12-29T10:53:48.247Z,6.33
2022-12-29T10:56:36.049Z,5.86
2022-12-29T10:59:27.565Z,6.19
2022-12-29T11:02:15.352Z,6.30
2022-12-29T11:04:45.658Z,6.45
2022-12-29T11:07:16.269Z,6.43
2022-12-29T11:09:46.031Z,6.47
2022-12-29T11:12:32.029Z,6.44
2022-12-29T11:15:21.718Z,6.38
2022-12-29T11:17:55.924Z,6.55
2022-12-29T11:20:29.474Z,6.69
2022-12-29T11:22:57.549Z,7.05
2022-12-29T11:25:25.203Z,7.74
2022-12-29T11:28:16.125Z,7.50
2022-12-29T11:30:44.523Z,7.55
2022-12-29T11:33:12.265Z,7.44
2022-12-29T11:35:44.395Z,7.32
2022-12-29T11:38:25.498Z,7.40
2022-12-29T11:40:53.368Z,7.81
2022-12-29T11:43:34.411Z,7.84
2022-12-29T11:46:04.690Z,7.71
2022-12-29T11:48:42.643Z,7.81
2022-12-29T11:51:12.786Z,7.70
2022-12-29T11:53:53.503Z,7.77
2022-12-29T11:56:40.526Z,7.67
2022-12-29T11:59:30.902Z,7.67
2022-12-29T12:02:00.935Z,7.61
2022-12-29T12:04:33.261Z,7.64
2022-12-29T12:07:10.001Z,7.64
2022-12-29T12:09:45.744Z,7.75
2022-12-29T12:12:37.462Z,7.70
2022-12-29T12:15:15.514Z,7.64
2022-12-29T12:18:05.903Z,7.94
2022-12-29T12:20:47.587Z,8.61
2022-12-29T12:23:33.851Z,10.13
2022-12-29T12:26:05.697Z,9.65
2022-12-29T12:28:42.802Z,9.47
2022-12-29T12:31:51.718Z,9.25
2022-12-29T12:34:31.118Z,9.34
2022-12-29T12:37:21.092Z,9.41
2022-12-29T12:40:05.557Z,9.30
2022-12-29T12:42:45.105Z,9.28
2022-12-29T12:45:22.107Z,9.13
2022-12-29T12:48:05.133Z,8.89
2022-12-29T12:50:48.093Z,9.03
2022-12-29T12:53:22.063Z,9.34
2022-12-29T12:55:58.859Z,9.21
2022-12-29T12:58:41.885Z,9.24
2022-12-29T13:01:31.435Z,9.44
2022-12-29T13:04:24.825Z,9.07
2022-12-29T13:07:28.704Z,9.16
2022-12-29T13:10:28.765Z,9.81
2022-12-29T13:12:56.344Z,10.24
2022-12-29T13:15:41.249Z,10.24
2022-12-29T13:18:11.853Z,10.38
2022-12-29T13:21:07.345Z,10.36
2022-12-29T13:23:43.433Z,10.12
2022-12-29T13:26:11.060Z,10.32
2022-12-29T13:28:54.859Z,12.42
2022-12-29T13:31:48.283Z,12.29
2022-12-29T13:34:57.554Z,11.39
2022-12-29T13:37:29.917Z,10.89
2022-12-29T13:40:04.420Z,10.34
2022-12-29T13:42:32.611Z,10.13
2022-12-29T13:45:08.470Z,9.96
2022-12-29T13:47:44.372Z,9.56
2022-12-29T13:50:20.360Z,9.58
2022-12-29T13:53:04.195Z,9.33
2022-12-29T13:55:46.822Z,9.48
2022-12-29T13:58:34.103Z,9.48
2022-12-29T14:01:39.441Z,9.38
2022-12-29T14:04:24.732Z,9.44
2022-12-29T14:07:04.310Z,9.51
2022-12-29T14:09:42.303Z,9.43
2022-12-29T14:12:38.547Z,9.53
2022-12-29T14:15:12.434Z,9.46
2022-12-29T14:17:46.568Z,9.49
2022-12-29T14:20:24.559Z,9.47
2022-12-29T14:23:12.431Z,9.67
2022-12-29T14:26:07.523Z,9.66
2022-12-29T14:28:38.810Z,9.60
2022-12-29T14:31:18.743Z,9.67
2022-12-29T14:34:08.142Z,9.66
2022-12-29T14:36:41.481Z,9.72
2022-12-29T14:39:42.282Z,9.73
2022-12-29T14:42:13.183Z,9.64
2022-12-29T14:44:58.846Z,9.58
2022-12-29T14:47:32.382Z,9.51
2022-12-29T14:50:16.238Z,9.52
2022-12-29T14:53:06.178Z,9.39
2022-12-29T14:55:47.477Z,9.37
2022-12-29T14:58:20.421Z,9.38
2022-12-29T15:00:48.914Z,9.39
2022-12-29T15:03:22.769Z,9.34
2022-12-29T15:05:56.845Z,9.42
2022-12-29T15:08:35.355Z,9.32
2022-12-29T15:11:11.715Z,9.40
2022-12-29T15:13:44.371Z,9.52
2022-12-29T15:16:36.857Z,9.53
2022-12-29T15:19:06.153Z,9.44
2022-12-29T15:21:38.293Z,9.41
2022-12-29T15:24:06.489Z,9.47
2022-12-29T15:26:46.180Z,9.46
2022-12-29T15:29:49.951Z,9.36
2022-12-29T15:32:17.624Z,9.38
2022-12-29T15:34:46.952Z,9.39
2022-12-29T15:37:37.573Z,9.37
2022-12-29T15:40:06.050Z,9.30
2022-12-29T15:43:02.826Z,9.37
2022-12-29T15:45:35.715Z,9.35
2022-12-29T15:48:04.374Z,9.30
2022-12-29T15:50:35.058Z,9.44
2022-12-29T15:53:04.383Z,9.37
2022-12-29T15:55:37.843Z,9.31
2022-12-29T15:58:07.823Z,9.40
2022-12-29T16:00:38.657Z,9.45
2022-12-29T16:03:13.159Z,9.40
2022-12-29T16:05:41.961Z,9.46
2022-12-29T16:08:26.585Z,9.44
2022-12-29T16:10:57.243Z,9.41
2022-12-29T16:13:43.063Z,9.35
2022-12-29T16:16:19.893Z,9.32
2022-12-29T16:18:53.450Z,9.21
2022-12-29T16:21:33.664Z,9.25
2022-12-29T16:24:08.906Z,9.28
2022-12-29T16:26:36.835Z,9.26
2022-12-29T16:29:08.925Z,9.27
2022-12-29T16:31:38.851Z,9.30
2022-12-29T16:34:34.037Z,9.33
2022-12-29T16:37:04.648Z,9.24
2022-12-29T16:39:40.471Z,9.27
2022-12-29T16:42:50.952Z,9.27
2022-12-29T16:45:22.674Z,9.20
2022-12-29T16:48:13.114Z,9.00
2022-12-29T16:50:45.266Z,8.80
2022-12-29T16:53:40.704Z,8.87
2022-12-29T16:56:18.601Z,8.98
2022-12-29T16:58:51.991Z,8.92
2022-12-29T17:01:20.730Z,8.90
2022-12-29T17:03:54.639Z,8.84
2022-12-29T17:06:24.136Z,8.76
2022-12-29T17:08:53.216Z,8.80
2022-12-29T17:11:42.569Z,8.74
2022-12-29T17:14:37.990Z,8.80
2022-12-29T17:17:11.859Z,8.80
2022-12-29T17:19:40.352Z,8.69
2022-12-29T17:22:15.493Z,8.61
2022-12-29T17:24:43.153Z,8.71
2022-12-29T17:27:22.420Z,8.80
2022-12-29T17:29:50.972Z,8.95
2022-12-29T17:32:18.952Z,9.07
2022-12-29T17:34:46.616Z,9.17
2022-12-29T17:37:23.272Z,9.21
2022-12-29T17:39:51.004Z,9.15
2022-12-29T17:42:20.634Z,9.27
2022-12-29T17:44:48.549Z,9.22
2022-12-29T17:47:16.900Z,9.21
2022-12-29T17:49:46.088Z,9.29
2022-12-29T17:52:16.095Z,9.34
2022-12-29T17:54:47.933Z,9.29
2022-12-29T17:57:16.974Z,9.31
2022-12-29T17:59:44.648Z,9.30
2022-12-29T18:02:33.130Z,9.30
2022-12-29T18:05:01.298Z,9.30
2022-12-29T18:07:35.645Z,9.26
2022-12-29T18:10:04.813Z,9.22
2022-12-29T18:12:46.864Z,9.20
2022-12-29T18:15:25.234Z,9.14
2022-12-29T18:18:00.123Z,9.16
2022-12-29T18:20:30.056Z,9.08
2022-12-29T18:22:58.851Z,8.96
2022-12-29T18:25:31.042Z,9.17
2022-12-29T18:27:58.702Z,9.10
2022-12-29T18:30:26.349Z,8.97
2022-12-29T18:32:54.560Z,9.00
2022-12-29T18:35:34.512Z,9.00
2022-12-29T18:38:02.233Z,8.99
2022-12-29T18:40:30.410Z,8.98
2022-12-29T18:42:58.049Z,8.96
2022-12-29T18:45:26.145Z,8.93
2022-12-29T18:47:54.043Z,8.85
2022-12-29T18:50:21.771Z,8.90
2022-12-29T18:52:49.591Z,8.87
2022-12-29T18:55:23.802Z,8.85
2022-12-29T18:57:52.601Z,8.88
2022-12-29T19:00:22.715Z,8.92
2022-12-29T19:02:52.164Z,8.79
2022-12-29T19:05:32.618Z,8.85
2022-12-29T19:08:00.303Z,8.73
2022-12-29T19:10:28.134Z,8.77
2022-12-29T19:12:55.833Z,8.77
2022-12-29T19:15:32.881Z,8.62
2022-12-29T19:20:52.547Z,8.65
2022-12-29T19:23:23.666Z,8.66
2022-12-29T19:25:52.417Z,8.77
2022-12-29T19:28:26.182Z,8.71
2022-12-29T19:30:57.478Z,8.52
2022-12-29T19:33:25.277Z,8.75
2022-12-29T19:35:53.997Z,8.77
2022-12-29T19:38:21.710Z,8.78
2022-12-29T19:40:51.511Z,8.80
2022-12-29T19:43:19.715Z,8.85
2022-12-29T19:45:47.426Z,8.93
2022-12-29T19:48:17.482Z,9.01
2022-12-29T19:50:45.563Z,8.85
2022-12-29T19:53:13.580Z,8.83
2022-12-29T19:55:48.368Z,8.76
2022-12-29T19:58:16.312Z,8.76
2022-12-29T20:00:44.680Z,8.79
2022-12-29T20:03:12.868Z,8.73
2022-12-29T20:05:41.323Z,8.73
2022-12-29T20:08:09.014Z,8.70
2022-12-29T20:10:36.754Z,8.69
2022-12-29T20:13:06.089Z,8.61
2022-12-29T20:15:33.884Z,8.56
2022-12-29T20:18:13.153Z,8.61
2022-12-29T20:20:41.704Z,8.67
2022-12-29T20:23:09.623Z,8.65
2022-12-29T20:25:46.062Z,8.67
2022-12-29T20:28:14.503Z,8.68
2022-12-29T20:30:42.215Z,8.57
2022-12-29T20:33:10.190Z,8.59
2022-12-29T20:35:38.280Z,8.55
2022-12-29T20:38:06.295Z,8.55
2022-12-29T20:40:34.004Z,8.57
2022-12-29T20:43:01.678Z,8.57
2022-12-29T20:45:29.351Z,8.55
2022-12-29T20:47:57.061Z,8.50
2022-12-29T20:50:24.787Z,8.51
2022-12-29T20:52:53.471Z,8.52
2022-12-29T20:55:21.153Z,8.56
2022-12-29T21:00:36.705Z,8.55
2022-12-29T21:03:05.010Z,8.48
2022-12-29T21:05:32.731Z,8.35
2022-12-29T21:08:00.611Z,8.31
2022-12-29T21:10:28.323Z,8.33
2022-12-29T21:12:56.020Z,8.21
2022-12-29T21:15:23.764Z,8.33
2022-12-29T21:17:51.467Z,8.31
2022-12-29T21:20:29.793Z,8.31
2022-12-29T21:22:58.019Z,8.35
2022-12-29T21:25:25.721Z,8.43
2022-12-29T21:27:53.505Z,8.41
2022-12-29T21:30:21.205Z,8.43
2022-12-29T21:32:48.897Z,8.42
2022-12-29T21:35:16.580Z,8.03
2022-12-29T21:37:44.226Z,8.32
2022-12-29T21:40:12.239Z,8.30
2022-12-29T21:42:39.900Z,8.32
2022-12-29T21:45:26.643Z,8.26
2022-12-29T21:48:24.131Z,8.21
2022-12-29T21:51:30.593Z,7.98
2022-12-29T21:54:21.516Z,8.18
2022-12-29T21:56:50.076Z,8.08
2022-12-29T21:59:35.769Z,8.05
2022-12-29T22:02:35.316Z,8.12
2022-12-29T22:05:20.539Z,8.12
2022-12-29T22:08:05.841Z,7.94
2022-12-29T22:10:51.027Z,7.93
2022-12-29T22:13:18.732Z,7.95
2022-12-29T22:15:46.444Z,7.98
2022-12-29T22:18:15.296Z,7.99
2022-12-29T22:20:42.933Z,8.10
2022-12-29T22:23:10.637Z,8.07
2022-12-29T22:25:41.058Z,8.05
2022-12-29T22:28:08.742Z,8.04
2022-12-29T22:30:37.041Z,8.12
2022-12-29T22:33:04.753Z,8.08
2022-12-29T22:35:32.505Z,8.06
2022-12-29T22:38:00.239Z,7.82
2022-12-29T22:40:27.875Z,8.03
2022-12-29T22:42:55.611Z,7.93
2022-12-29T22:45:23.312Z,7.91
2022-12-29T22:47:51.005Z,7.81
2022-12-29T22:50:18.715Z,7.77
2022-12-29T22:52:46.402Z,7.73
2022-12-29T22:55:14.275Z,7.83
2022-12-29T22:57:41.932Z,7.84
2022-12-29T23:00:10.114Z,7.91
2022-12-29T23:02:37.873Z,7.95
2022-12-29T23:05:06.538Z,7.93
2022-12-29T23:07:37.511Z,7.74
2022-12-29T23:10:06.138Z,7.90
2022-12-29T23:12:33.826Z,7.88
2022-12-29T23:15:01.600Z,7.94
2022-12-29T23:17:29.261Z,7.87
2022-12-29T23:19:56.944Z,7.96
2022-12-29T23:22:25.113Z,7.86
2022-12-29T23:24:52.873Z,7.97
2022-12-29T23:27:20.653Z,7.96
2022-12-29T23:29:48.387Z,7.77
2022-12-29T23:32:16.041Z,7.92
2022-12-29T23:34:43.694Z,7.85
2022-12-29T23:37:11.355Z,7.81
2022-12-29T23:39:39.060Z,7.80
2022-12-29T23:42:06.939Z,7.84
2022-12-29T23:44:34.857Z,7.85
2022-12-29T23:47:04.592Z,7.79
2022-12-29T23:49:32.301Z,7.87
2022-12-29T23:51:59.935Z,7.83
2022-12-29T23:54:27.627Z,7.88
2022-12-29T23:56:56.649Z,7.83
2022-12-29T23:59:24.420Z,7.77
